Carnival Triumph — C6FN5 — position and weather

sailwx.info

Track history (hours):
 
Tides and Currents Weather Stations Pressure Air Temp Water Temp Dewpoint Dewpoint Depression Visibility Wind Speed Wind Dir Waves Ship Positions

Carnival Triumph

Operator: Carnival Cruise Lines

Last reported at 2016-Jun-26 07:00 UTC. Time now 2016-Jun-26 10:09 UTC.
Position N 28°12' W 089°06'.

Type: Ship. MMSI: 308045000.

Wind from 200 at 8 knots

Air temperature 27.0 ° C
Visibility: greater than 10.8 NM
Dewpoint 24.3 ° C
Water temperature 26.0 ° C

Date/timePositionNaut miles runAvg speedWind from/ knotsBaromVisibWave heightAir tempDewpointWater temp
2016-Jun-26 07:00N 28°12' W 089°06'10213.3 200 / 8 10.8 27.024.326.0
2016-Jun-25 23:19N 29°43' W 089°59'1013.2
2016-Jun-25 22:33N 29°53' W 089°58'6 6.3
2016-Jun-25 21:33N 29°57' W 090°03'1 1.4
2016-Jun-25 20:30N 29°56' W 090°04'0 0.0
2016-Jun-25 19:32N 29°56' W 090°04'0 0.0
2016-Jun-25 18:31N 29°56' W 090°04'0 0.0
2016-Jun-25 17:32N 29°56' W 090°04'0 0.0
2016-Jun-25 16:31N 29°56' W 090°04'0 0.0
2016-Jun-25 15:31N 29°56' W 090°04'0 0.0
2016-Jun-25 14:33N 29°56' W 090°04'0 0.0
2016-Jun-25 13:33N 29°56' W 090°04'0 0.0
2016-Jun-25 12:32N 29°56' W 090°04'2 1.6
2016-Jun-25 11:33N 29°57' W 090°02'8 7.8
2016-Jun-25 10:33N 29°52' W 089°55'9 9.1
2016-Jun-25 09:33N 29°44' W 089°60'15712.5
2016-Jun-24 21:00N 27°12' W 089°12'7813.0 080 / 41017.010.8 28.022.426.0
2016-Jun-24 15:00N 25°54' W 089°18'12615.8 090 / 101020.510.8 0.528.025.329.0
2016-Jun-24 07:00N 23°48' W 089°12'6616.6 080 / 131013.010.8 0.527.024.326.0
2016-Jun-24 03:00N 22°42' W 089°18'119 5.6 050 / 201018.510.8 1.027.024.329.0
2016-Jun-23 06:00N 21°48' W 087°24'17 8.4 110 / 51012.010.8 27.024.328.0
2016-Jun-23 04:00N 21°48' W 087°06'6514.4 140 / 101018.5 5.4 1.026.023.225.0
2016-Jun-22 23:28N 20°44' W 086°50'1617.5
2016-Jun-22 22:33N 20°31' W 086°59'2 2.3
2016-Jun-22 21:31N 20°29' W 086°59'0 0.0
2016-Jun-22 20:31N 20°29' W 086°59'0 0.0
2016-Jun-22 19:28N 20°29' W 086°59'0 0.0
2016-Jun-22 18:31N 20°29' W 086°59'0 0.0
2016-Jun-22 17:19N 20°29' W 086°59'0 0.0
2016-Jun-22 16:31N 20°29' W 086°59'0 0.0
2016-Jun-22 15:28N 20°29' W 086°59'0 0.0
2016-Jun-22 14:31N 20°29' W 086°59'0 0.0
2016-Jun-22 13:31N 20°29' W 086°59'1 1.4
2016-Jun-22 12:33N 20°30' W 086°59'1312.8
2016-Jun-22 11:34N 20°41' W 086°53'7914.2
2016-Jun-22 06:00N 22°00' W 086°54'25817.2 090 / 151015.010.8 0.527.024.328.0
2016-Jun-21 15:00N 26°06' W 088°18'13116.4 060 / 171019.527.0 4.028.022.429.0
2016-Jun-21 07:00N 28°12' W 089°00'11811.0 090 / 151017.010.8 27.022.828.0
2016-Jun-20 20:14N 29°56' W 090°04'0 0.0
2016-Jun-20 19:32N 29°56' W 090°04'0 0.0
2016-Jun-20 18:33N 29°56' W 090°04'0 0.0
2016-Jun-20 17:33N 29°56' W 090°04'0 0.0
2016-Jun-20 16:32N 29°56' W 090°04'0 0.0
2016-Jun-20 15:31N 29°56' W 090°04'0 0.0
2016-Jun-20 14:33N 29°56' W 090°04'0 0.0
2016-Jun-20 13:31N 29°56' W 090°04'0 0.0
2016-Jun-20 12:32N 29°56' W 090°04'7 7.3
2016-Jun-20 11:33N 29°55' W 089°56'1110.5
2016-Jun-20 10:34N 29°46' W 090°02'27417.6
2016-Jun-19 19:00N 25°36' W 087°54'22218.5 080 / 151015.010.8 0.528.022.427.0
2016-Jun-19 07:00N 22°06' W 086°36'8321.9 090 / 221015.0 5.4 26.023.227.0
2016-Jun-19 03:12N 20°44' W 086°50'1320.3
2016-Jun-19 02:33N 20°33' W 086°57'10 2.5
2016-Jun-18 22:32N 20°42' W 086°52'1414.7
2016-Jun-18 21:33N 20°29' W 086°59'0 0.0
2016-Jun-18 20:33N 20°29' W 086°59'0 0.0
2016-Jun-18 19:30N 20°29' W 086°59'0 0.0
2016-Jun-18 18:30N 20°29' W 086°59'0 0.0
2016-Jun-18 17:33N 20°29' W 086°59'0 0.0
2016-Jun-18 16:33N 20°29' W 086°59'0 0.0
2016-Jun-18 15:33N 20°29' W 086°59'0 0.0
2016-Jun-18 14:33N 20°29' W 086°59'0 0.0
2016-Jun-18 13:24N 20°29' W 086°59'0 0.0
2016-Jun-18 12:33N 20°29' W 086°59'1 0.8
2016-Jun-18 11:33N 20°29' W 086°59'1514.7
2016-Jun-18 10:34N 20°42' W 086°52'50916.8
2016-Jun-17 04:16N 28°52' W 089°25'1213.2
2016-Jun-17 03:23N 29°03' W 089°19'66 8.3
2016-Jun-16 19:25N 29°56' W 090°04'0 0.0
2016-Jun-16 18:32N 29°56' W 090°04'0 0.0
2016-Jun-16 17:33N 29°56' W 090°04'0 0.0
2016-Jun-16 16:32N 29°56' W 090°04'0 0.0
2016-Jun-16 15:31N 29°56' W 090°04'0 0.0
2016-Jun-16 14:33N 29°56' W 090°04'0 0.0
2016-Jun-16 12:33N 29°56' W 090°04'1 1.3
2016-Jun-16 11:33N 29°58' W 090°03'9 8.7
2016-Jun-16 10:33N 29°52' W 089°55'9 8.4
2016-Jun-16 09:31N 29°44' W 090°00'1111.4
2016-Jun-16 08:33N 29°36' W 089°51'  
Track history (hours):
 
Tides and Currents Weather Stations Pressure Air Temp Water Temp Dewpoint Dewpoint Depression Visibility Wind Speed Wind Dir Waves Ship Positions

Carnival Triumph

Operator: Carnival Cruise Lines

Last reported at 2016-Jun-26 07:00 UTC. Time now 2016-Jun-26 10:09 UTC.
Position N 28°12' W 089°06'.

Type: Ship. MMSI: 308045000.

Wind from 200 at 8 knots

Air temperature 27.0 ° C
Visibility: greater than 10.8 NM
Dewpoint 24.3 ° C
Water temperature 26.0 ° C

Date/timePositionNaut miles runAvg speedWind from/ knotsBaromVisibWave heightAir tempDewpointWater temp
2016-Jun-26 07:00N 28°12' W 089°06'10213.3 200 / 8 10.8 27.024.326.0
2016-Jun-25 23:19N 29°43' W 089°59'1013.2
2016-Jun-25 22:33N 29°53' W 089°58'6 6.3
2016-Jun-25 21:33N 29°57' W 090°03'1 1.4
2016-Jun-25 20:30N 29°56' W 090°04'0 0.0
2016-Jun-25 19:32N 29°56' W 090°04'0 0.0
2016-Jun-25 18:31N 29°56' W 090°04'0 0.0
2016-Jun-25 17:32N 29°56' W 090°04'0 0.0
2016-Jun-25 16:31N 29°56' W 090°04'0 0.0
2016-Jun-25 15:31N 29°56' W 090°04'0 0.0
2016-Jun-25 14:33N 29°56' W 090°04'0 0.0
2016-Jun-25 13:33N 29°56' W 090°04'0 0.0
2016-Jun-25 12:32N 29°56' W 090°04'2 1.6
2016-Jun-25 11:33N 29°57' W 090°02'8 7.8
2016-Jun-25 10:33N 29°52' W 089°55'9 9.1
2016-Jun-25 09:33N 29°44' W 089°60'15712.5
2016-Jun-24 21:00N 27°12' W 089°12'7813.0 080 / 41017.010.8 28.022.426.0
2016-Jun-24 15:00N 25°54' W 089°18'12615.8 090 / 101020.510.8 0.528.025.329.0
2016-Jun-24 07:00N 23°48' W 089°12'6616.6 080 / 131013.010.8 0.527.024.326.0
2016-Jun-24 03:00N 22°42' W 089°18'119 5.6 050 / 201018.510.8 1.027.024.329.0
2016-Jun-23 06:00N 21°48' W 087°24'17 8.4 110 / 51012.010.8 27.024.328.0
2016-Jun-23 04:00N 21°48' W 087°06'6514.4 140 / 101018.5 5.4 1.026.023.225.0
2016-Jun-22 23:28N 20°44' W 086°50'1617.5
2016-Jun-22 22:33N 20°31' W 086°59'2 2.3
2016-Jun-22 21:31N 20°29' W 086°59'0 0.0
2016-Jun-22 20:31N 20°29' W 086°59'0 0.0
2016-Jun-22 19:28N 20°29' W 086°59'0 0.0
2016-Jun-22 18:31N 20°29' W 086°59'0 0.0
2016-Jun-22 17:19N 20°29' W 086°59'0 0.0
2016-Jun-22 16:31N 20°29' W 086°59'0 0.0
2016-Jun-22 15:28N 20°29' W 086°59'0 0.0
2016-Jun-22 14:31N 20°29' W 086°59'0 0.0
2016-Jun-22 13:31N 20°29' W 086°59'1 1.4
2016-Jun-22 12:33N 20°30' W 086°59'1312.8
2016-Jun-22 11:34N 20°41' W 086°53'7914.2
2016-Jun-22 06:00N 22°00' W 086°54'25817.2 090 / 151015.010.8 0.527.024.328.0
2016-Jun-21 15:00N 26°06' W 088°18'13116.4 060 / 171019.527.0 4.028.022.429.0
2016-Jun-21 07:00N 28°12' W 089°00'11811.0 090 / 151017.010.8 27.022.828.0
2016-Jun-20 20:14N 29°56' W 090°04'0 0.0
2016-Jun-20 19:32N 29°56' W 090°04'0 0.0
2016-Jun-20 18:33N 29°56' W 090°04'0 0.0
2016-Jun-20 17:33N 29°56' W 090°04'0 0.0
2016-Jun-20 16:32N 29°56' W 090°04'0 0.0
2016-Jun-20 15:31N 29°56' W 090°04'0 0.0
2016-Jun-20 14:33N 29°56' W 090°04'0 0.0
2016-Jun-20 13:31N 29°56' W 090°04'0 0.0
2016-Jun-20 12:32N 29°56' W 090°04'7 7.3
2016-Jun-20 11:33N 29°55' W 089°56'1110.5
2016-Jun-20 10:34N 29°46' W 090°02'27417.6
2016-Jun-19 19:00N 25°36' W 087°54'22218.5 080 / 151015.010.8 0.528.022.427.0
2016-Jun-19 07:00N 22°06' W 086°36'8321.9 090 / 221015.0 5.4 26.023.227.0
2016-Jun-19 03:12N 20°44' W 086°50'1320.3
2016-Jun-19 02:33N 20°33' W 086°57'10 2.5
2016-Jun-18 22:32N 20°42' W 086°52'1414.7
2016-Jun-18 21:33N 20°29' W 086°59'0 0.0
2016-Jun-18 20:33N 20°29' W 086°59'0 0.0
2016-Jun-18 19:30N 20°29' W 086°59'0 0.0
2016-Jun-18 18:30N 20°29' W 086°59'0 0.0
2016-Jun-18 17:33N 20°29' W 086°59'0 0.0
2016-Jun-18 16:33N 20°29' W 086°59'0 0.0
2016-Jun-18 15:33N 20°29' W 086°59'0 0.0
2016-Jun-18 14:33N 20°29' W 086°59'0 0.0
2016-Jun-18 13:24N 20°29' W 086°59'0 0.0
2016-Jun-18 12:33N 20°29' W 086°59'1 0.8
2016-Jun-18 11:33N 20°29' W 086°59'1514.7
2016-Jun-18 10:34N 20°42' W 086°52'50916.8
2016-Jun-17 04:16N 28°52' W 089°25'1213.2
2016-Jun-17 03:23N 29°03' W 089°19'66 8.3
2016-Jun-16 19:25N 29°56' W 090°04'0 0.0
2016-Jun-16 18:32N 29°56' W 090°04'0 0.0
2016-Jun-16 17:33N 29°56' W 090°04'0 0.0
2016-Jun-16 16:32N 29°56' W 090°04'0 0.0
2016-Jun-16 15:31N 29°56' W 090°04'0 0.0
2016-Jun-16 14:33N 29°56' W 090°04'0 0.0
2016-Jun-16 12:33N 29°56' W 090°04'1 1.3
2016-Jun-16 11:33N 29°58' W 090°03'9 8.7
2016-Jun-16 10:33N 29°52' W 089°55'9 8.4
2016-Jun-16 09:31N 29°44' W 090°00'1111.4
2016-Jun-16 08:33N 29°36' W 089°51'  

Dump ship's entire track history